Aeroporto :
LOGIN :

Iscrizione | Disclaimer

   EN    FR    IT 

 










Sommario :    VFR   VFR Marginale   IFR   IFR Intensivo   IFR Molto Intensivo
Visibilità : 
Base nubi : 
>= 8 km
>= 3000ft
5 / 8 km
1000 / 3000 ft
1500m / 5 km
500 / 1000 ft
800 / 1500m
200 / 500 ft
< 800m
< 200 ft
Simboli :   Temporali  Nebbia  Neve Forte  Precipitazioni Forti  Vento > 20 kt
SIGMETs :   Varie  Temporali  Ghiacco  Turbolenza  Onda orograficha  Ceneri Vulcaniche






- Altitudine del aeroporto : 817 ft
- Codice IATA : VHY


LFLV - Vichy

ULTIMO METAR :
  • 211500Z AUTO 35010KT 290V030 9999 SCT054/// OVC068/// ///TCU 10/M00 Q1020

METARs OBSOLETI :
  • 211430Z AUTO 35009KT 270V030 9999 FEW054 BKN080 BKN240 10/M01 Q1020
  • 211400Z AUTO 33010KT 270V020 9999 BKN047 BKN054 OVC078 10/M01 Q1021
  • 211330Z AUTO 36011KT 320V030 9999 BKN048 BKN060 OVC078 09/M00 Q1021
  • 211300Z AUTO 34010KT 290V020 9999 FEW040 BKN078 10/M00 Q1021
  • 211230Z AUTO 34011KT 290V020 9999 FEW043 BKN054 BKN064 08/M01 Q1021
  • 211200Z AUTO 36009KT 320V050 9999 FEW041 BKN060 09/00 Q1021
  • 211130Z AUTO 36008KT 310V030 9999 FEW032 SCT038 OVC058 08/01 Q1022
  • 211100Z AUTO 31007KT 270V360 9999 FEW024 SCT029 BKN047 08/02 Q1022
  • 211030Z AUTO 30004KT 210V350 9999 FEW019 BKN026 BKN041 06/02 Q1022

Previsioni scadute.



MetMap, La meteo Aeronautica in un colpo d'occhio ! - Copyright ORBIFLY Dicembre 2007 - Disclaimer

ORBIFLY MET'MAP TEAM :

Programmazione e sviluppo : Alexandra Zaïnal
Concezione : Baudouin d'Aumeries
Supporto tecnico e logistico : Manuel Goepfert
Aiuto : Marc-Olivier Méhu
Aiuto per la traduzione : Arnaldo La Scala




FONTI E CREDITI :

   NOAA